sensor_id;sensor_type;location;lat;lon;timestamp;P1;durP1;ratioP1;P2;durP2;ratioP2
36423;SDS011;22458;45.328;9.514;2023-05-07T00:00:01;22.95;;;20.38;;
36423;SDS011;22458;45.328;9.514;2023-05-07T00:02:28;23.38;;;19.67;;
36423;SDS011;22458;45.328;9.514;2023-05-07T00:04:54;23.35;;;20.95;;
36423;SDS011;22458;45.328;9.514;2023-05-07T00:07:20;23.65;;;20.08;;
36423;SDS011;22458;45.328;9.514;2023-05-07T00:09:46;24.05;;;21.40;;
36423;SDS011;22458;45.328;9.514;2023-05-07T00:12:12;27.40;;;22.52;;
36423;SDS011;22458;45.328;9.514;2023-05-07T00:14:37;25.88;;;23.08;;
36423;SDS011;22458;45.328;9.514;2023-05-07T00:17:03;26.67;;;23.35;;
36423;SDS011;22458;45.328;9.514;2023-05-07T00:19:29;26.92;;;23.45;;
36423;SDS011;22458;45.328;9.514;2023-05-07T00:21:55;29.45;;;24.05;;
36423;SDS011;22458;45.328;9.514;2023-05-07T00:24:21;29.85;;;26.23;;
36423;SDS011;22458;45.328;9.514;2023-05-07T00:26:47;29.38;;;26.15;;
36423;SDS011;22458;45.328;9.514;2023-05-07T00:29:12;28.67;;;25.58;;
36423;SDS011;22458;45.328;9.514;2023-05-07T00:31:38;28.30;;;24.70;;
36423;SDS011;22458;45.328;9.514;2023-05-07T00:34:04;29.38;;;24.35;;
36423;SDS011;22458;45.328;9.514;2023-05-07T00:36:31;27.15;;;24.15;;
36423;SDS011;22458;45.328;9.514;2023-05-07T00:38:57;29.02;;;25.77;;
36423;SDS011;22458;45.328;9.514;2023-05-07T00:41:25;30.88;;;26.67;;
36423;SDS011;22458;45.328;9.514;2023-05-07T00:43:51;27.83;;;24.75;;
36423;SDS011;22458;45.328;9.514;2023-05-07T00:46:17;29.05;;;25.92;;
36423;SDS011;22458;45.328;9.514;2023-05-07T00:48:46;27.98;;;24.48;;
36423;SDS011;22458;45.328;9.514;2023-05-07T00:51:12;28.30;;;24.73;;
36423;SDS011;22458;45.328;9.514;2023-05-07T00:53:38;27.02;;;23.77;;
36423;SDS011;22458;45.328;9.514;2023-05-07T00:56:04;32.70;;;26.48;;
36423;SDS011;22458;45.328;9.514;2023-05-07T00:58:32;29.40;;;25.95;;
36423;SDS011;22458;45.328;9.514;2023-05-07T01:00:59;28.88;;;25.90;;
36423;SDS011;22458;45.328;9.514;2023-05-07T01:03:24;30.15;;;26.55;;
36423;SDS011;22458;45.328;9.514;2023-05-07T01:05:51;28.40;;;25.13;;
36423;SDS011;22458;45.328;9.514;2023-05-07T01:08:18;29.33;;;26.20;;
36423;SDS011;22458;45.328;9.514;2023-05-07T01:10:44;28.98;;;24.88;;
36423;SDS011;22458;45.328;9.514;2023-05-07T01:13:12;27.33;;;24.05;;
36423;SDS011;22458;45.328;9.514;2023-05-07T01:15:39;28.90;;;24.77;;
36423;SDS011;22458;45.328;9.514;2023-05-07T01:18:08;28.80;;;24.88;;
36423;SDS011;22458;45.328;9.514;2023-05-07T01:20:34;27.13;;;24.23;;
36423;SDS011;22458;45.328;9.514;2023-05-07T01:23:00;29.98;;;26.77;;
36423;SDS011;22458;45.328;9.514;2023-05-07T01:25:28;31.08;;;25.83;;
36423;SDS011;22458;45.328;9.514;2023-05-07T01:27:57;29.80;;;26.63;;
36423;SDS011;22458;45.328;9.514;2023-05-07T01:30:28;27.52;;;24.52;;
36423;SDS011;22458;45.328;9.514;2023-05-07T01:33:02;28.75;;;25.65;;
36423;SDS011;22458;45.328;9.514;2023-05-07T01:35:37;30.33;;;24.80;;
36423;SDS011;22458;45.328;9.514;2023-05-07T01:38:05;26.48;;;23.50;;
36423;SDS011;22458;45.328;9.514;2023-05-07T01:40:33;27.42;;;24.45;;
36423;SDS011;22458;45.328;9.514;2023-05-07T01:43:00;27.58;;;23.58;;
36423;SDS011;22458;45.328;9.514;2023-05-07T01:45:28;31.73;;;25.58;;
36423;SDS011;22458;45.328;9.514;2023-05-07T01:47:56;33.20;;;25.73;;
36423;SDS011;22458;45.328;9.514;2023-05-07T01:50:24;28.75;;;25.60;;
36423;SDS011;22458;45.328;9.514;2023-05-07T01:52:51;27.77;;;24.50;;
36423;SDS011;22458;45.328;9.514;2023-05-07T01:55:17;29.00;;;24.17;;
36423;SDS011;22458;45.328;9.514;2023-05-07T01:57:43;29.13;;;23.70;;
36423;SDS011;22458;45.328;9.514;2023-05-07T02:00:09;27.13;;;24.23;;
36423;SDS011;22458;45.328;9.514;2023-05-07T02:02:41;29.38;;;23.70;;
36423;SDS011;22458;45.328;9.514;2023-05-07T02:05:15;25.98;;;23.20;;
36423;SDS011;22458;45.328;9.514;2023-05-07T02:07:43;23.95;;;21.55;;
36423;SDS011;22458;45.328;9.514;2023-05-07T02:10:09;20.45;;;18.35;;
36423;SDS011;22458;45.328;9.514;2023-05-07T02:12:35;27.45;;;18.23;;
36423;SDS011;22458;45.328;9.514;2023-05-07T02:15:01;20.75;;;16.08;;
36423;SDS011;22458;45.328;9.514;2023-05-07T02:17:27;15.27;;;13.68;;
36423;SDS011;22458;45.328;9.514;2023-05-07T02:19:58;12.27;;;11.07;;
36423;SDS011;22458;45.328;9.514;2023-05-07T02:22:24;12.73;;;10.20;;
36423;SDS011;22458;45.328;9.514;2023-05-07T02:24:50;8.23;;;7.05;;
36423;SDS011;22458;45.328;9.514;2023-05-07T02:27:16;9.40;;;6.93;;
36423;SDS011;22458;45.328;9.514;2023-05-07T02:29:43;7.55;;;5.60;;
36423;SDS011;22458;45.328;9.514;2023-05-07T02:32:09;5.90;;;4.88;;
36423;SDS011;22458;45.328;9.514;2023-05-07T02:34:35;7.57;;;4.03;;
36423;SDS011;22458;45.328;9.514;2023-05-07T02:37:01;4.97;;;3.83;;
36423;SDS011;22458;45.328;9.514;2023-05-07T02:39:27;3.17;;;2.88;;
36423;SDS011;22458;45.328;9.514;2023-05-07T02:41:52;4.00;;;2.72;;
36423;SDS011;22458;45.328;9.514;2023-05-07T02:44:18;5.22;;;2.85;;
36423;SDS011;22458;45.328;9.514;2023-05-07T02:46:47;3.13;;;2.78;;
36423;SDS011;22458;45.328;9.514;2023-05-07T02:49:13;3.58;;;1.90;;
36423;SDS011;22458;45.328;9.514;2023-05-07T02:51:39;2.80;;;1.70;;
36423;SDS011;22458;45.328;9.514;2023-05-07T02:54:10;3.20;;;1.67;;
36423;SDS011;22458;45.328;9.514;2023-05-07T02:56:36;2.55;;;1.73;;
36423;SDS011;22458;45.328;9.514;2023-05-07T02:59:02;2.08;;;1.55;;
36423;SDS011;22458;45.328;9.514;2023-05-07T03:01:32;2.40;;;1.25;;
36423;SDS011;22458;45.328;9.514;2023-05-07T03:04:03;2.70;;;1.70;;
36423;SDS011;22458;45.328;9.514;2023-05-07T03:06:29;2.75;;;1.48;;
36423;SDS011;22458;45.328;9.514;2023-05-07T03:08:55;2.15;;;1.58;;
36423;SDS011;22458;45.328;9.514;2023-05-07T03:11:21;2.53;;;1.63;;
36423;SDS011;22458;45.328;9.514;2023-05-07T03:13:46;1.83;;;1.23;;
36423;SDS011;22458;45.328;9.514;2023-05-07T03:16:14;2.90;;;1.65;;
36423;SDS011;22458;45.328;9.514;2023-05-07T03:18:41;2.90;;;1.30;;
36423;SDS011;22458;45.328;9.514;2023-05-07T03:21:06;3.05;;;1.17;;
36423;SDS011;22458;45.328;9.514;2023-05-07T03:23:32;3.38;;;1.33;;
36423;SDS011;22458;45.328;9.514;2023-05-07T03:25:58;4.68;;;1.63;;
36423;SDS011;22458;45.328;9.514;2023-05-07T03:28:24;2.17;;;1.80;;
36423;SDS011;22458;45.328;9.514;2023-05-07T03:30:55;2.95;;;2.15;;
36423;SDS011;22458;45.328;9.514;2023-05-07T03:33:21;1.77;;;1.38;;
36423;SDS011;22458;45.328;9.514;2023-05-07T03:35:47;1.60;;;1.00;;
36423;SDS011;22458;45.328;9.514;2023-05-07T03:38:18;2.03;;;1.40;;
36423;SDS011;22458;45.328;9.514;2023-05-07T03:40:44;3.15;;;1.35;;
36423;SDS011;22458;45.328;9.514;2023-05-07T03:43:10;1.67;;;1.33;;
36423;SDS011;22458;45.328;9.514;2023-05-07T03:45:39;3.40;;;2.42;;
36423;SDS011;22458;45.328;9.514;2023-05-07T03:48:13;1.60;;;1.20;;
36423;SDS011;22458;45.328;9.514;2023-05-07T03:50:39;1.58;;;1.30;;
36423;SDS011;22458;45.328;9.514;2023-05-07T03:53:06;1.80;;;0.90;;
36423;SDS011;22458;45.328;9.514;2023-05-07T03:55:36;1.77;;;0.90;;
36423;SDS011;22458;45.328;9.514;2023-05-07T03:58:02;3.33;;;1.00;;
36423;SDS011;22458;45.328;9.514;2023-05-07T04:00:28;2.55;;;0.95;;
36423;SDS011;22458;45.328;9.514;2023-05-07T04:02:58;3.45;;;1.00;;
36423;SDS011;22458;45.328;9.514;2023-05-07T04:05:27;3.20;;;1.30;;
36423;SDS011;22458;45.328;9.514;2023-05-07T04:07:57;3.28;;;0.77;;
36423;SDS011;22458;45.328;9.514;2023-05-07T04:10:29;1.77;;;0.80;;
36423;SDS011;22458;45.328;9.514;2023-05-07T04:12:56;2.22;;;1.02;;
36423;SDS011;22458;45.328;9.514;2023-05-07T04:15:24;2.72;;;1.10;;
36423;SDS011;22458;45.328;9.514;2023-05-07T04:17:49;1.30;;;0.98;;
36423;SDS011;22458;45.328;9.514;2023-05-07T04:20:18;3.00;;;1.60;;
36423;SDS011;22458;45.328;9.514;2023-05-07T04:22:48;2.00;;;0.80;;
36423;SDS011;22458;45.328;9.514;2023-05-07T04:25:15;2.53;;;1.27;;
36423;SDS011;22458;45.328;9.514;2023-05-07T04:27:42;2.95;;;1.00;;
36423;SDS011;22458;45.328;9.514;2023-05-07T04:30:08;2.28;;;1.00;;
36423;SDS011;22458;45.328;9.514;2023-05-07T04:35:03;2.97;;;1.15;;
36423;SDS011;22458;45.328;9.514;2023-05-07T04:37:31;3.58;;;1.17;;
36423;SDS011;22458;45.328;9.514;2023-05-07T04:39:58;2.53;;;1.17;;
36423;SDS011;22458;45.328;9.514;2023-05-07T04:42:25;1.77;;;1.02;;
36423;SDS011;22458;45.328;9.514;2023-05-07T04:44:52;3.78;;;1.20;;
36423;SDS011;22458;45.328;9.514;2023-05-07T04:47:20;1.77;;;1.10;;
36423;SDS011;22458;45.328;9.514;2023-05-07T04:49:46;2.97;;;0.90;;
36423;SDS011;22458;45.328;9.514;2023-05-07T04:52:11;1.55;;;1.00;;
36423;SDS011;22458;45.328;9.514;2023-05-07T04:54:37;1.50;;;1.00;;
36423;SDS011;22458;45.328;9.514;2023-05-07T04:57:04;1.10;;;0.88;;
36423;SDS011;22458;45.328;9.514;2023-05-07T04:59:31;1.70;;;0.90;;
36423;SDS011;22458;45.328;9.514;2023-05-07T05:01:58;3.35;;;0.90;;
36423;SDS011;22458;45.328;9.514;2023-05-07T05:04:24;1.98;;;0.90;;
36423;SDS011;22458;45.328;9.514;2023-05-07T05:06:50;1.80;;;1.10;;
36423;SDS011;22458;45.328;9.514;2023-05-07T05:09:16;2.15;;;0.75;;
36423;SDS011;22458;45.328;9.514;2023-05-07T05:11:42;1.73;;;1.20;;
36423;SDS011;22458;45.328;9.514;2023-05-07T05:14:08;1.30;;;0.95;;
36423;SDS011;22458;45.328;9.514;2023-05-07T05:16:34;1.42;;;1.25;;
36423;SDS011;22458;45.328;9.514;2023-05-07T05:19:01;1.80;;;0.95;;
36423;SDS011;22458;45.328;9.514;2023-05-07T05:21:28;1.48;;;1.05;;
36423;SDS011;22458;45.328;9.514;2023-05-07T05:23:59;2.53;;;1.00;;
36423;SDS011;22458;45.328;9.514;2023-05-07T05:26:25;1.58;;;0.80;;
36423;SDS011;22458;45.328;9.514;2023-05-07T05:28:51;1.15;;;0.80;;
36423;SDS011;22458;45.328;9.514;2023-05-07T05:31:19;1.20;;;1.00;;
36423;SDS011;22458;45.328;9.514;2023-05-07T05:33:48;1.90;;;1.17;;
36423;SDS011;22458;45.328;9.514;2023-05-07T05:36:13;1.15;;;0.85;;
36423;SDS011;22458;45.328;9.514;2023-05-07T05:38:41;1.45;;;1.27;;
36423;SDS011;22458;45.328;9.514;2023-05-07T05:41:08;1.67;;;1.00;;
36423;SDS011;22458;45.328;9.514;2023-05-07T05:43:34;1.88;;;1.13;;
36423;SDS011;22458;45.328;9.514;2023-05-07T05:46:00;2.15;;;1.15;;
36423;SDS011;22458;45.328;9.514;2023-05-07T05:48:26;1.33;;;1.00;;
36423;SDS011;22458;45.328;9.514;2023-05-07T05:50:52;2.88;;;1.25;;
36423;SDS011;22458;45.328;9.514;2023-05-07T05:53:18;1.45;;;0.98;;
36423;SDS011;22458;45.328;9.514;2023-05-07T05:55:44;3.33;;;0.93;;
36423;SDS011;22458;45.328;9.514;2023-05-07T05:58:11;2.45;;;1.10;;
36423;SDS011;22458;45.328;9.514;2023-05-07T06:00:40;3.40;;;1.20;;
36423;SDS011;22458;45.328;9.514;2023-05-07T06:03:06;2.28;;;1.10;;
36423;SDS011;22458;45.328;9.514;2023-05-07T06:05:33;2.65;;;1.20;;
36423;SDS011;22458;45.328;9.514;2023-05-07T06:07:59;1.88;;;0.82;;
36423;SDS011;22458;45.328;9.514;2023-05-07T06:10:29;2.55;;;1.23;;
36423;SDS011;22458;45.328;9.514;2023-05-07T06:12:56;2.33;;;1.48;;
36423;SDS011;22458;45.328;9.514;2023-05-07T06:15:21;2.28;;;1.10;;
36423;SDS011;22458;45.328;9.514;2023-05-07T06:17:47;2.13;;;1.17;;
36423;SDS011;22458;45.328;9.514;2023-05-07T06:20:14;2.00;;;1.15;;
36423;SDS011;22458;45.328;9.514;2023-05-07T06:22:40;2.42;;;1.35;;
36423;SDS011;22458;45.328;9.514;2023-05-07T06:25:08;3.03;;;1.95;;
36423;SDS011;22458;45.328;9.514;2023-05-07T06:27:34;1.55;;;0.85;;
36423;SDS011;22458;45.328;9.514;2023-05-07T06:30:00;1.52;;;0.95;;
36423;SDS011;22458;45.328;9.514;2023-05-07T06:32:26;2.58;;;1.65;;
36423;SDS011;22458;45.328;9.514;2023-05-07T06:34:51;1.55;;;0.93;;
36423;SDS011;22458;45.328;9.514;2023-05-07T06:37:18;2.90;;;1.20;;
36423;SDS011;22458;45.328;9.514;2023-05-07T06:39:57;4.00;;;1.20;;
36423;SDS011;22458;45.328;9.514;2023-05-07T06:42:22;1.33;;;1.02;;
36423;SDS011;22458;45.328;9.514;2023-05-07T06:44:49;1.13;;;0.90;;
36423;SDS011;22458;45.328;9.514;2023-05-07T06:47:16;1.23;;;1.00;;
36423;SDS011;22458;45.328;9.514;2023-05-07T06:49:45;1.38;;;0.70;;
36423;SDS011;22458;45.328;9.514;2023-05-07T06:52:14;1.52;;;0.80;;
36423;SDS011;22458;45.328;9.514;2023-05-07T06:54:41;2.17;;;1.10;;
36423;SDS011;22458;45.328;9.514;2023-05-07T06:57:07;1.70;;;0.80;;
36423;SDS011;22458;45.328;9.514;2023-05-07T06:59:34;1.30;;;0.98;;
36423;SDS011;22458;45.328;9.514;2023-05-07T07:02:00;1.23;;;0.98;;
36423;SDS011;22458;45.328;9.514;2023-05-07T07:04:25;1.98;;;1.02;;
36423;SDS011;22458;45.328;9.514;2023-05-07T07:06:59;1.73;;;1.27;;
36423;SDS011;22458;45.328;9.514;2023-05-07T07:09:25;1.38;;;0.95;;
36423;SDS011;22458;45.328;9.514;2023-05-07T07:11:52;1.50;;;1.27;;
36423;SDS011;22458;45.328;9.514;2023-05-07T07:14:18;2.95;;;1.30;;
36423;SDS011;22458;45.328;9.514;2023-05-07T07:16:48;1.98;;;1.08;;
36423;SDS011;22458;45.328;9.514;2023-05-07T07:19:16;1.83;;;0.90;;
36423;SDS011;22458;45.328;9.514;2023-05-07T07:21:42;1.33;;;0.82;;
36423;SDS011;22458;45.328;9.514;2023-05-07T07:24:10;2.83;;;0.88;;
36423;SDS011;22458;45.328;9.514;2023-05-07T07:26:36;1.35;;;0.90;;
36423;SDS011;22458;45.328;9.514;2023-05-07T07:29:02;1.10;;;0.90;;
36423;SDS011;22458;45.328;9.514;2023-05-07T07:31:28;1.13;;;0.85;;
36423;SDS011;22458;45.328;9.514;2023-05-07T07:33:54;2.78;;;1.05;;
36423;SDS011;22458;45.328;9.514;2023-05-07T07:36:20;2.75;;;0.95;;
36423;SDS011;22458;45.328;9.514;2023-05-07T07:38:46;1.50;;;0.98;;
36423;SDS011;22458;45.328;9.514;2023-05-07T07:41:12;2.10;;;1.00;;
36423;SDS011;22458;45.328;9.514;2023-05-07T07:43:38;1.67;;;0.93;;
36423;SDS011;22458;45.328;9.514;2023-05-07T07:46:04;1.30;;;0.98;;
36423;SDS011;22458;45.328;9.514;2023-05-07T07:48:30;1.45;;;0.80;;
36423;SDS011;22458;45.328;9.514;2023-05-07T07:50:57;1.20;;;0.93;;
36423;SDS011;22458;45.328;9.514;2023-05-07T07:53:23;1.40;;;0.88;;
36423;SDS011;22458;45.328;9.514;2023-05-07T07:55:49;0.95;;;0.75;;
36423;SDS011;22458;45.328;9.514;2023-05-07T07:58:17;3.33;;;2.03;;
36423;SDS011;22458;45.328;9.514;2023-05-07T08:00:43;1.55;;;1.10;;
36423;SDS011;22458;45.328;9.514;2023-05-07T08:03:10;1.27;;;1.10;;
36423;SDS011;22458;45.328;9.514;2023-05-07T08:05:39;1.30;;;1.05;;
36423;SDS011;22458;45.328;9.514;2023-05-07T08:08:06;1.40;;;0.98;;
36423;SDS011;22458;45.328;9.514;2023-05-07T08:10:34;1.52;;;1.00;;
36423;SDS011;22458;45.328;9.514;2023-05-07T08:13:04;1.10;;;1.00;;
36423;SDS011;22458;45.328;9.514;2023-05-07T08:15:31;1.27;;;0.82;;
36423;SDS011;22458;45.328;9.514;2023-05-07T08:17:57;1.38;;;1.15;;
36423;SDS011;22458;45.328;9.514;2023-05-07T08:20:25;1.20;;;0.90;;
36423;SDS011;22458;45.328;9.514;2023-05-07T08:22:52;2.25;;;1.25;;
36423;SDS011;22458;45.328;9.514;2023-05-07T08:25:18;1.27;;;0.95;;
36423;SDS011;22458;45.328;9.514;2023-05-07T08:27:43;1.50;;;1.10;;
36423;SDS011;22458;45.328;9.514;2023-05-07T08:30:10;1.33;;;1.20;;
36423;SDS011;22458;45.328;9.514;2023-05-07T08:32:37;2.53;;;1.60;;
36423;SDS011;22458;45.328;9.514;2023-05-07T08:35:03;2.17;;;1.70;;
36423;SDS011;22458;45.328;9.514;2023-05-07T08:37:29;1.70;;;1.30;;
36423;SDS011;22458;45.328;9.514;2023-05-07T08:39:55;2.38;;;1.63;;
36423;SDS011;22458;45.328;9.514;2023-05-07T08:42:25;2.10;;;1.52;;
36423;SDS011;22458;45.328;9.514;2023-05-07T08:44:52;2.80;;;1.48;;
36423;SDS011;22458;45.328;9.514;2023-05-07T08:47:23;1.40;;;1.08;;
36423;SDS011;22458;45.328;9.514;2023-05-07T08:49:59;1.38;;;1.23;;
36423;SDS011;22458;45.328;9.514;2023-05-07T08:52:27;4.18;;;1.60;;
36423;SDS011;22458;45.328;9.514;2023-05-07T08:54:53;1.58;;;1.20;;
36423;SDS011;22458;45.328;9.514;2023-05-07T08:57:19;3.13;;;1.50;;
36423;SDS011;22458;45.328;9.514;2023-05-07T08:59:47;3.92;;;1.55;;
36423;SDS011;22458;45.328;9.514;2023-05-07T09:02:13;2.22;;;1.27;;
36423;SDS011;22458;45.328;9.514;2023-05-07T09:04:40;2.33;;;1.00;;
36423;SDS011;22458;45.328;9.514;2023-05-07T09:07:05;2.28;;;1.27;;
36423;SDS011;22458;45.328;9.514;2023-05-07T09:09:35;1.95;;;1.20;;
36423;SDS011;22458;45.328;9.514;2023-05-07T09:12:02;2.25;;;1.02;;
36423;SDS011;22458;45.328;9.514;2023-05-07T09:14:31;1.75;;;1.27;;
36423;SDS011;22458;45.328;9.514;2023-05-07T09:16:58;1.88;;;1.13;;
36423;SDS011;22458;45.328;9.514;2023-05-07T09:19:24;2.05;;;1.13;;
36423;SDS011;22458;45.328;9.514;2023-05-07T09:21:59;2.80;;;1.10;;
36423;SDS011;22458;45.328;9.514;2023-05-07T09:24:28;1.70;;;1.20;;
36423;SDS011;22458;45.328;9.514;2023-05-07T09:26:58;1.58;;;1.13;;
36423;SDS011;22458;45.328;9.514;2023-05-07T09:29:26;1.17;;;0.98;;
36423;SDS011;22458;45.328;9.514;2023-05-07T09:31:54;1.70;;;1.00;;
36423;SDS011;22458;45.328;9.514;2023-05-07T09:34:20;2.22;;;1.00;;
36423;SDS011;22458;45.328;9.514;2023-05-07T09:36:47;1.27;;;1.00;;
36423;SDS011;22458;45.328;9.514;2023-05-07T09:39:14;1.30;;;0.88;;
36423;SDS011;22458;45.328;9.514;2023-05-07T09:41:44;1.45;;;0.85;;
36423;SDS011;22458;45.328;9.514;2023-05-07T09:44:34;1.50;;;1.08;;
36423;SDS011;22458;45.328;9.514;2023-05-07T09:47:01;2.63;;;1.00;;
36423;SDS011;22458;45.328;9.514;2023-05-07T09:49:36;1.50;;;0.90;;
36423;SDS011;22458;45.328;9.514;2023-05-07T09:52:08;2.85;;;1.00;;
36423;SDS011;22458;45.328;9.514;2023-05-07T09:54:40;3.50;;;1.00;;
36423;SDS011;22458;45.328;9.514;2023-05-07T09:57:11;0.70;;;0.60;;
36423;SDS011;22458;45.328;9.514;2023-05-07T09:59:41;3.67;;;0.93;;
36423;SDS011;22458;45.328;9.514;2023-05-07T10:02:10;1.75;;;0.88;;
36423;SDS011;22458;45.328;9.514;2023-05-07T10:04:45;1.65;;;0.80;;
36423;SDS011;22458;45.328;9.514;2023-05-07T10:07:14;2.03;;;0.98;;
36423;SDS011;22458;45.328;9.514;2023-05-07T10:09:42;1.23;;;0.95;;
36423;SDS011;22458;45.328;9.514;2023-05-07T10:12:17;1.17;;;0.80;;
36423;SDS011;22458;45.328;9.514;2023-05-07T10:14:44;1.35;;;0.95;;
36423;SDS011;22458;45.328;9.514;2023-05-07T10:17:11;2.47;;;1.00;;
36423;SDS011;22458;45.328;9.514;2023-05-07T10:19:38;1.95;;;0.90;;
36423;SDS011;22458;45.328;9.514;2023-05-07T10:22:06;1.77;;;0.85;;
36423;SDS011;22458;45.328;9.514;2023-05-07T10:24:38;1.42;;;1.02;;
36423;SDS011;22458;45.328;9.514;2023-05-07T10:27:10;1.10;;;0.70;;
36423;SDS011;22458;45.328;9.514;2023-05-07T10:34:45;1.02;;;0.75;;
36423;SDS011;22458;45.328;9.514;2023-05-07T10:37:14;0.93;;;0.57;;
36423;SDS011;22458;45.328;9.514;2023-05-07T10:39:41;1.48;;;1.00;;
36423;SDS011;22458;45.328;9.514;2023-05-07T10:42:09;3.00;;;0.93;;
36423;SDS011;22458;45.328;9.514;2023-05-07T10:44:44;2.25;;;0.90;;
36423;SDS011;22458;45.328;9.514;2023-05-07T10:47:16;2.38;;;0.93;;
36423;SDS011;22458;45.328;9.514;2023-05-07T10:52:20;2.03;;;1.40;;
36423;SDS011;22458;45.328;9.514;2023-05-07T10:57:49;1.65;;;0.90;;
36423;SDS011;22458;45.328;9.514;2023-05-07T11:05:29;1.67;;;0.90;;
36423;SDS011;22458;45.328;9.514;2023-05-07T11:08:05;2.53;;;1.02;;
36423;SDS011;22458;45.328;9.514;2023-05-07T11:10:55;1.17;;;0.82;;
36423;SDS011;22458;45.328;9.514;2023-05-07T11:13:47;1.80;;;0.75;;
36423;SDS011;22458;45.328;9.514;2023-05-07T11:16:43;1.77;;;1.00;;
36423;SDS011;22458;45.328;9.514;2023-05-07T11:19:17;3.58;;;2.15;;
36423;SDS011;22458;45.328;9.514;2023-05-07T11:22:03;3.05;;;1.10;;
36423;SDS011;22458;45.328;9.514;2023-05-07T11:24:41;3.80;;;2.15;;
36423;SDS011;22458;45.328;9.514;2023-05-07T11:27:09;2.15;;;0.60;;
36423;SDS011;22458;45.328;9.514;2023-05-07T11:29:35;2.95;;;0.80;;
36423;SDS011;22458;45.328;9.514;2023-05-07T11:32:08;1.40;;;0.90;;
36423;SDS011;22458;45.328;9.514;2023-05-07T11:34:43;2.28;;;0.60;;
36423;SDS011;22458;45.328;9.514;2023-05-07T11:37:10;1.30;;;0.70;;
36423;SDS011;22458;45.328;9.514;2023-05-07T11:40:01;1.27;;;0.73;;
36423;SDS011;22458;45.328;9.514;2023-05-07T11:42:36;2.35;;;0.60;;
36423;SDS011;22458;45.328;9.514;2023-05-07T11:45:03;3.25;;;0.80;;
36423;SDS011;22458;45.328;9.514;2023-05-07T11:47:33;2.80;;;0.60;;
36423;SDS011;22458;45.328;9.514;2023-05-07T11:50:06;1.20;;;0.50;;
36423;SDS011;22458;45.328;9.514;2023-05-07T11:52:33;1.23;;;0.70;;
36423;SDS011;22458;45.328;9.514;2023-05-07T11:55:00;1.45;;;0.93;;
36423;SDS011;22458;45.328;9.514;2023-05-07T11:57:27;1.50;;;0.80;;
36423;SDS011;22458;45.328;9.514;2023-05-07T11:59:54;4.30;;;0.85;;
36423;SDS011;22458;45.328;9.514;2023-05-07T12:02:20;1.10;;;0.68;;
36423;SDS011;22458;45.328;9.514;2023-05-07T12:04:46;2.20;;;0.77;;
36423;SDS011;22458;45.328;9.514;2023-05-07T12:07:12;1.40;;;0.93;;
36423;SDS011;22458;45.328;9.514;2023-05-07T12:09:39;2.70;;;1.08;;
36423;SDS011;22458;45.328;9.514;2023-05-07T12:12:09;1.42;;;0.90;;
36423;SDS011;22458;45.328;9.514;2023-05-07T12:14:41;1.35;;;0.60;;
36423;SDS011;22458;45.328;9.514;2023-05-07T12:17:09;1.60;;;1.10;;
36423;SDS011;22458;45.328;9.514;2023-05-07T12:19:36;2.50;;;1.10;;
36423;SDS011;22458;45.328;9.514;2023-05-07T12:22:03;1.58;;;1.20;;
36423;SDS011;22458;45.328;9.514;2023-05-07T12:24:42;2.65;;;1.05;;
36423;SDS011;22458;45.328;9.514;2023-05-07T12:27:09;1.65;;;0.90;;
36423;SDS011;22458;45.328;9.514;2023-05-07T12:29:35;1.75;;;1.05;;
36423;SDS011;22458;45.328;9.514;2023-05-07T12:32:00;2.72;;;0.80;;
36423;SDS011;22458;45.328;9.514;2023-05-07T12:34:27;2.05;;;0.90;;
36423;SDS011;22458;45.328;9.514;2023-05-07T12:36:53;0.93;;;0.82;;
36423;SDS011;22458;45.328;9.514;2023-05-07T12:39:20;1.20;;;0.90;;
36423;SDS011;22458;45.328;9.514;2023-05-07T12:41:52;2.55;;;0.93;;
36423;SDS011;22458;45.328;9.514;2023-05-07T12:44:24;1.58;;;0.98;;
36423;SDS011;22458;45.328;9.514;2023-05-07T12:46:58;1.38;;;1.13;;
36423;SDS011;22458;45.328;9.514;2023-05-07T12:49:26;1.48;;;0.90;;
36423;SDS011;22458;45.328;9.514;2023-05-07T12:51:53;1.77;;;1.10;;
36423;SDS011;22458;45.328;9.514;2023-05-07T12:54:32;1.40;;;1.08;;
36423;SDS011;22458;45.328;9.514;2023-05-07T12:57:06;2.00;;;0.95;;
36423;SDS011;22458;45.328;9.514;2023-05-07T12:59:36;1.80;;;0.80;;
36423;SDS011;22458;45.328;9.514;2023-05-07T13:02:03;1.40;;;0.65;;
36423;SDS011;22458;45.328;9.514;2023-05-07T13:04:30;1.40;;;0.90;;
36423;SDS011;22458;45.328;9.514;2023-05-07T13:06:56;1.27;;;1.10;;
36423;SDS011;22458;45.328;9.514;2023-05-07T13:09:21;1.55;;;0.95;;
36423;SDS011;22458;45.328;9.514;2023-05-07T13:11:47;1.10;;;0.80;;
36423;SDS011;22458;45.328;9.514;2023-05-07T13:14:13;1.20;;;0.90;;
36423;SDS011;22458;45.328;9.514;2023-05-07T13:16:39;4.13;;;1.00;;
36423;SDS011;22458;45.328;9.514;2023-05-07T13:19:04;2.25;;;1.23;;
36423;SDS011;22458;45.328;9.514;2023-05-07T13:21:30;1.65;;;1.38;;
36423;SDS011;22458;45.328;9.514;2023-05-07T13:26:30;2.65;;;1.50;;
36423;SDS011;22458;45.328;9.514;2023-05-07T13:28:56;2.60;;;1.60;;
36423;SDS011;22458;45.328;9.514;2023-05-07T13:31:22;2.10;;;1.25;;
36423;SDS011;22458;45.328;9.514;2023-05-07T13:33:49;6.50;;;1.10;;
36423;SDS011;22458;45.328;9.514;2023-05-07T13:36:15;2.95;;;1.23;;
36423;SDS011;22458;45.328;9.514;2023-05-07T13:38:40;4.65;;;1.25;;
36423;SDS011;22458;45.328;9.514;2023-05-07T13:41:06;1.92;;;1.33;;
36423;SDS011;22458;45.328;9.514;2023-05-07T13:43:32;10.65;;;1.67;;
36423;SDS011;22458;45.328;9.514;2023-05-07T13:48:26;3.15;;;2.17;;
36423;SDS011;22458;45.328;9.514;2023-05-07T13:50:53;2.35;;;1.58;;
36423;SDS011;22458;45.328;9.514;2023-05-07T13:53:19;1.88;;;1.08;;
36423;SDS011;22458;45.328;9.514;2023-05-07T13:55:45;2.05;;;0.95;;
36423;SDS011;22458;45.328;9.514;2023-05-07T13:58:10;1.83;;;1.33;;
36423;SDS011;22458;45.328;9.514;2023-05-07T14:00:36;1.75;;;1.00;;
36423;SDS011;22458;45.328;9.514;2023-05-07T14:03:03;2.55;;;1.15;;
36423;SDS011;22458;45.328;9.514;2023-05-07T14:05:30;2.10;;;1.00;;
36423;SDS011;22458;45.328;9.514;2023-05-07T14:07:59;2.47;;;1.30;;
36423;SDS011;22458;45.328;9.514;2023-05-07T14:10:25;1.30;;;1.20;;
36423;SDS011;22458;45.328;9.514;2023-05-07T14:12:51;1.80;;;1.48;;
36423;SDS011;22458;45.328;9.514;2023-05-07T14:15:17;1.77;;;1.30;;
36423;SDS011;22458;45.328;9.514;2023-05-07T14:17:43;1.60;;;1.15;;
36423;SDS011;22458;45.328;9.514;2023-05-07T14:20:09;1.63;;;1.23;;
36423;SDS011;22458;45.328;9.514;2023-05-07T14:22:37;3.20;;;1.30;;
36423;SDS011;22458;45.328;9.514;2023-05-07T14:25:03;2.05;;;1.48;;
36423;SDS011;22458;45.328;9.514;2023-05-07T14:27:29;1.45;;;1.30;;
36423;SDS011;22458;45.328;9.514;2023-05-07T14:29:55;2.08;;;1.50;;
36423;SDS011;22458;45.328;9.514;2023-05-07T14:32:21;2.40;;;1.55;;
36423;SDS011;22458;45.328;9.514;2023-05-07T14:34:47;1.50;;;1.30;;
36423;SDS011;22458;45.328;9.514;2023-05-07T14:37:13;2.38;;;1.17;;
36423;SDS011;22458;45.328;9.514;2023-05-07T14:39:39;1.40;;;1.27;;
36423;SDS011;22458;45.328;9.514;2023-05-07T14:42:04;3.28;;;1.40;;
36423;SDS011;22458;45.328;9.514;2023-05-07T14:44:33;1.73;;;1.17;;
36423;SDS011;22458;45.328;9.514;2023-05-07T14:49:27;3.63;;;1.40;;
36423;SDS011;22458;45.328;9.514;2023-05-07T14:51:53;4.22;;;1.45;;
36423;SDS011;22458;45.328;9.514;2023-05-07T14:54:19;1.40;;;1.20;;
36423;SDS011;22458;45.328;9.514;2023-05-07T14:56:45;2.25;;;1.20;;
36423;SDS011;22458;45.328;9.514;2023-05-07T14:59:12;2.95;;;1.60;;
36423;SDS011;22458;45.328;9.514;2023-05-07T15:01:43;2.33;;;1.83;;
36423;SDS011;22458;45.328;9.514;2023-05-07T15:04:10;3.05;;;1.80;;
36423;SDS011;22458;45.328;9.514;2023-05-07T15:06:36;3.08;;;1.40;;
36423;SDS011;22458;45.328;9.514;2023-05-07T15:09:02;2.22;;;1.40;;
36423;SDS011;22458;45.328;9.514;2023-05-07T15:11:28;4.30;;;1.20;;